ADDS METAR Data INFO
IDs: Format: Raw Decoded Include TAF

Data at: 1932 UTC 19 Jul 2018

KVQT 191915Z AUTO 27011KT 9SM FEW027 FEW034 30/25 A2999 RMK A01
KVQT 191855Z AUTO 28011KT 9SM FEW027 FEW034 30/25 A2999 RMK A01
KVQT 191835Z AUTO 27012KT 9SM FEW025 FEW035 30/25 A3000 RMK A01
KVQT 191815Z AUTO 29009KT 9SM FEW026 FEW035 30/25 A3000 RMK A01
KVQT 191755Z AUTO 28009KT 9SM FEW027 30/25 A3000 RMK A01
KVQT 191735Z AUTO 28009KT 9SM FEW025 30/25 A3001 RMK A01
KVQT 191715Z AUTO 28010KT 9SM FEW024 30/25 A3002 RMK A01
KVQT 191655Z AUTO 29012KT 9SM CLR 30/25 A3001 RMK A01
KVQT 191635Z AUTO 28011KT 9SM CLR 30/25 A3002 RMK A01
KVQT 191615Z AUTO 29011KT 9SM CLR 30/25 A3002 RMK A01
KVQT 191555Z AUTO 28012KT 9SM CLR 30/25 A3001 RMK A01
KVQT 191535Z AUTO 28013KT 9SM CLR 30/25 A3001 RMK A01
KVQT 191515Z AUTO 28014KT 9SM FEW025 30/25 A3001 RMK A01
KVQT 191455Z AUTO 27013KT 9SM FEW025 30/25 A3001 RMK A01
KVQT 191435Z AUTO 26010G15KT 10SM FEW025 30/25 A3001 RMK A01
KVQT 191415Z AUTO 26008G14KT 9SM FEW025 30/25 A3000 RMK A01
KVQT 191355Z AUTO 26009KT 9SM CLR 30/25 A3000 RMK A01
KVQT 191335Z AUTO 26010KT 9SM FEW026 FEW031 FEW037 30/25 A3000 RMK A01
KVQT 191315Z AUTO 26008G15KT 210V290 9SM BKN025 BKN034 BKN040 30/25 A3000 RMK A01
KVQT 191255Z AUTO VRB06G11KT 9SM SCT026 BKN033 BKN041 30/25 A2999 RMK A01
KVQT 191235Z AUTO VRB05G10KT 9SM FEW026 FEW032 30/25 A2999 RMK A01
KVQT 191215Z AUTO VRB04G11KT 10SM CLR 30/25 A2998 RMK A01
KVQT 191155Z AUTO 24004G12KT 9SM CLR 30/25 A2998 RMK A01
KVQT 191135Z AUTO VRB04G11KT 10SM FEW032 30/25 A2998 RMK A01
KVQT 191115Z AUTO VRB05G13KT 10SM FEW024 FEW032 30/25 A2998 RMK A01
KVQT 191055Z AUTO VRB04G10KT 10SM CLR 30/25 A2997 RMK A01
KVQT 191035Z AUTO VRB04G10KT 10SM FEW026 FEW032 FEW060 30/24 A2997 RMK A01
KVQT 191015Z AUTO VRB06G12KT 10SM SCT023 SCT029 BKN060 30/25 A2996 RMK A01
KVQT 190955Z AUTO VRB05G11KT 10SM FEW025 SCT029 SCT060 30/25 A2996 RMK A01
KVQT 190935Z AUTO VRB06G12KT 9SM SCT055 30/25 A2996 RMK A01
KVQT 190915Z AUTO VRB03G12KT 10SM BKN055 30/25 A2995 RMK A01
KVQT 190855Z AUTO VRB04G11KT 10SM BKN055 30/25 A2995 RMK A01
KVQT 190835Z AUTO VRB03G13KT 10SM OVC055 30/25 A2995 RMK A01
KVQT 190815Z AUTO VRB06G13KT 210V270 10SM BKN055 30/25 A2995 RMK A01
KVQT 190755Z AUTO VRB06G12KT 10SM BKN060 30/25 A2995 RMK A01
KVQT 190735Z AUTO VRB04G10KT 9SM BKN060 BKN070 30/25 A2996 RMK A01
KVQT 190715Z AUTO VRB05G11KT 10SM BKN060 30/25 A2996 RMK A01
KVQT 190655Z AUTO VRB06G12KT 10SM SCT060 30/25 A2997 RMK A01
KVQT 190635Z AUTO VRB05KT 10SM FEW060 30/25 A2997 RMK A01
KVQT 190615Z AUTO VRB05G11KT 9SM FEW026 30/25 A2998 RMK A01
KVQT 190555Z AUTO VRB05G12KT 10SM FEW027 FEW035 FEW060 30/25 A2998 RMK A01
KVQT 190535Z AUTO VRB04G10KT 10SM FEW027 FEW035 FEW060 30/25 A2999 RMK A01
KVQT 190515Z AUTO VRB06G11KT 9SM FEW026 30/24 A2999 RMK A01
KVQT 190455Z AUTO VRB05KT 10SM SCT026 SCT050 30/25 A2999 RMK A01
KVQT 190435Z AUTO VRB05KT 9SM SCT027 BKN050 BKN060 30/25 A3000 RMK A01
KVQT 190415Z AUTO 23005KT 10SM FEW026 SCT055 30/25 A3000 RMK A01
KVQT 190355Z AUTO VRB04KT 10SM FEW055 30/25 A3000 RMK A01
KVQT 190335Z AUTO 00000KT 9SM SCT055 30/24 A3000 RMK A01
KVQT 190315Z AUTO VRB04KT FEW060 30/25 A3000 RMK A01
KVQT 190255Z AUTO VRB06KT 10SM SCT060 30/24 A3000 RMK A01
KVQT 190235Z AUTO 29008KT 10SM BKN060 30/24 A3000 RMK A01
KVQT 190215Z AUTO 28005KT 10SM BKN060 30/25 A3000 RMK A01
KVQT 190155Z AUTO VRB05KT 9SM FEW060 30/25 A3000 RMK A01
KVQT 190135Z AUTO 27007KT 10SM FEW027 29/25 A2999 RMK A01
KVQT 190115Z AUTO 28008KT 9SM CLR 30/24 A2999 RMK A01
KVQT 190055Z AUTO VRB04G10KT 10SM CLR 30/24 A2999 RMK A01
KVQT 190035Z AUTO 28009KT 10SM FEW027 30/24 A2999 RMK A01
KVQT 190015Z AUTO 29009KT 10SM SCT027 SCT033 30/25 A2999 RMK A01
KVQT 182355Z AUTO 29008KT 9SM CLR 30/25 A2999 RMK A01
KVQT 182335Z AUTO 27008KT 10SM CLR 30/24 A2998 RMK A01
KVQT 182315Z AUTO 27008KT 9SM CLR 30/25 A2999 RMK A01
KVQT 182255Z AUTO 28007KT 10SM CLR 30/25 A2999 RMK A01
KVQT 182235Z AUTO 28008KT 9SM FEW027 30/25 A3000 RMK A01
KVQT 182215Z AUTO 28007KT 10SM CLR 30/25 A3000 RMK A01
KVQT 182155Z AUTO 28008KT 9SM CLR 30/25 A3001 RMK A01
KVQT 182135Z AUTO 29009KT 10SM CLR 30/25 A3001 RMK A01
KVQT 182115Z AUTO 29010KT 9SM CLR 30/26 A3001 RMK A01
KVQT 182055Z AUTO 29010KT 9SM SCT023 SCT029 SCT036 30/25 A3001 RMK A01
KVQT 182035Z AUTO 30011KT 9SM SCT023 SCT030 BKN043 30/26 A3001 RMK A01
KVQT 182015Z AUTO 28008KT 9SM SCT024 30/25 A3002 RMK A01
KVQT 181955Z AUTO 27010KT 10SM FEW024 FEW030 30/25 A3002 RMK A01
KVQT 181935Z AUTO 27010KT 9SM SCT022 BKN029 30/26 A3002 RMK A01
KVQT 181915Z AUTO 27009KT 9SM FEW021 30/26 A3003 RMK A01
KVQT 181855Z AUTO 28009KT 10SM FEW022 30/26 A3004 RMK A01
KVQT 181835Z AUTO 29009KT 9SM CLR 30/26 A3005 RMK A01
KVQT 181815Z AUTO 29008KT 9SM CLR 30/25 A3005 RMK A01
KVQT 181755Z AUTO 27008KT 9SM CLR 30/25 A3005 RMK A01
KVQT 181735Z AUTO 28009KT 10SM CLR 30/25 A3006 RMK A01
KVQT 181715Z AUTO 28009KT 9SM CLR 30/24 A3006 RMK A01
KVQT 181655Z AUTO 28009KT 9SM CLR 30/25 A3007 RMK A01
KVQT 181635Z AUTO 29012KT 10SM FEW028 FEW033 30/25 A3006 RMK A01
KVQT 181615Z AUTO 27012KT 10SM CLR 30/25 A3006 RMK A01
KVQT 181555Z AUTO 27011KT 10SM CLR 30/25 A3006 RMK A01
KVQT 181535Z AUTO 27012KT 9SM SCT026 SCT035 SCT043 30/25 A3006 RMK A01
KVQT 181515Z AUTO 26009KT 10SM SCT024 BKN028 BKN034 31/25 A3006 RMK A01
KVQT 181455Z AUTO VRB05G14KT 10SM FEW023 FEW033 30/25 A3007 RMK A01
KVQT 181435Z AUTO 27009KT 10SM CLR 30/25 A3007 RMK A01
KVQT 181415Z AUTO 27010KT 10SM CLR 30/25 A3006 RMK A01
KVQT 181355Z AUTO 27013KT 10SM CLR 30/25 A3006 RMK A01
KVQT 181335Z AUTO 27011KT CLR 30/24 A3006 RMK A01
KVQT 181315Z AUTO 27012KT 10SM SCT023 SCT031 29/25 A3006 RMK A01
KVQT 181255Z AUTO 28013KT 10SM SCT023 SCT032 29/25 A3006 RMK A01
KVQT 181235Z AUTO 27010KT 10SM FEW024 30/25 A3005 RMK A01
KVQT 181215Z AUTO 27010KT 10SM FEW024 30/25 A3006 RMK A01
KVQT 181155Z AUTO 26008G15KT 10SM CLR 30/25 A3005 RMK A01
KVQT 181135Z AUTO 27011KT 10SM CLR 30/25 A3005 RMK A01
KVQT 181115Z AUTO 27010KT 10SM FEW060 30/25 A3005 RMK A01
KVQT 181055Z AUTO 26007G13KT 10SM FEW025 SCT060 30/24 A3005 RMK A01
KVQT 181035Z AUTO 27009KT 10SM SCT024 SCT032 SCT060 30/25 A3005 RMK A01
KVQT 181015Z AUTO VRB06G11KT 10SM SCT024 SCT032 BKN060 30/25 A3004 RMK A01
KVQT 180955Z AUTO VRB06KT 10SM SCT060 30/25 A3004 RMK A01
KVQT 180935Z AUTO VRB06KT 10SM SCT060 30/25 A3004 RMK A01
KVQT 180915Z AUTO 24007KT 190V320 10SM SCT060 30/25 A3003 RMK A01
KVQT 180855Z AUTO VRB06KT 10SM FEW025 FEW040 SCT055 30/25 A3004 RMK A01
KVQT 180835Z AUTO VRB07KT 220V300 10SM BKN023 BKN028 BKN038 30/25 A3003 RMK A01
KVQT 180815Z AUTO VRB05KT 10SM BKN021 BKN030 OVC055 30/26 A3003 RMK A01
KVQT 180755Z AUTO VRB05KT 10SM SCT021 BKN033 BKN055 30/26 A3003 RMK A01
KVQT 180735Z AUTO VRB04G10KT 9SM FEW022 FEW029 SCT055 30/26 A3003 RMK A01